createdAt,value
2022-08-03T00:01:49.871Z,4.82
2022-08-03T00:04:16.766Z,4.85
2022-08-03T00:06:43.833Z,3.75
2022-08-03T00:09:11.223Z,3.22
2022-08-03T00:11:38.004Z,3.70
2022-08-03T00:14:05.748Z,7.65
2022-08-03T00:16:32.637Z,5.22
2022-08-03T00:19:00.845Z,5.70
2022-08-03T00:21:28.575Z,4.75
2022-08-03T00:23:55.635Z,3.42
2022-08-03T00:26:22.702Z,6.38
2022-08-03T00:28:50.166Z,5.95
2022-08-03T00:31:23.022Z,6.28
2022-08-03T00:34:03.711Z,5.70
2022-08-03T00:36:30.981Z,7.15
2022-08-03T00:38:58.021Z,4.65
2022-08-03T00:41:24.679Z,4.32
2022-08-03T00:43:51.594Z,6.57
2022-08-03T00:46:21.703Z,5.75
2022-08-03T00:48:53.351Z,5.25
2022-08-03T00:51:21.018Z,6.30
2022-08-03T00:53:47.920Z,5.88
2022-08-03T00:56:15.674Z,4.10
2022-08-03T00:58:44.116Z,5.45
2022-08-03T01:01:12.397Z,7.07
2022-08-03T01:03:39.448Z,7.07
2022-08-03T01:06:22.038Z,12.27
2022-08-03T01:08:54.631Z,4.88
2022-08-03T01:11:37.532Z,6.22
2022-08-03T01:14:33.183Z,5.68
2022-08-03T01:17:07.631Z,4.47
2022-08-03T01:20:03.507Z,5.25
2022-08-03T01:22:33.233Z,4.78
2022-08-03T01:25:18.522Z,4.22
2022-08-03T01:27:57.159Z,5.88
2022-08-03T01:30:31.871Z,5.10
2022-08-03T01:33:06.705Z,6.07
2022-08-03T01:35:54.744Z,4.53
2022-08-03T01:38:27.567Z,5.57
2022-08-03T01:40:56.412Z,7.18
2022-08-03T01:44:27.508Z,6.55
2022-08-03T01:46:15.505Z,8.27
2022-08-03T01:48:43.088Z,7.10
2022-08-03T01:51:10.746Z,7.38
2022-08-03T01:53:38.939Z,7.45
2022-08-03T01:56:06.916Z,8.05
2022-08-03T01:58:35.359Z,17.70
2022-08-03T02:01:03.594Z,5.32
2022-08-03T02:03:32.253Z,4.75
2022-08-03T02:06:55.637Z,9.23
2022-08-03T02:08:47.355Z,8.07
2022-08-03T02:11:14.119Z,7.50
2022-08-03T02:13:41.279Z,6.85
2022-08-03T02:16:08.929Z,7.53
2022-08-03T02:18:39.282Z,6.57
2022-08-03T02:21:11.261Z,4.55
2022-08-03T02:23:38.454Z,5.97
2022-08-03T02:26:07.151Z,9.13
2022-08-03T02:28:38.879Z,6.88
2022-08-03T02:31:08.174Z,7.18
2022-08-03T02:33:38.435Z,12.10
2022-08-03T02:36:06.223Z,6.78
2022-08-03T02:38:34.739Z,6.45
2022-08-03T02:41:05.066Z,6.13
2022-08-03T02:43:56.763Z,6.45
2022-08-03T02:46:20.903Z,6.55
2022-08-03T02:48:50.379Z,6.10
2022-08-03T02:51:21.342Z,7.30
2022-08-03T02:53:48.431Z,8.15
2022-08-03T02:56:15.723Z,9.10
2022-08-03T02:58:43.772Z,9.18
2022-08-03T03:01:12.058Z,9.95
2022-08-03T03:03:44.626Z,7.95
2022-08-03T03:06:12.949Z,6.57
2022-08-03T03:08:42.047Z,6.95
2022-08-03T03:11:08.856Z,7.85
2022-08-03T03:13:36.388Z,7.07
2022-08-03T03:16:04.931Z,6.38
2022-08-03T03:18:33.942Z,6.60
2022-08-03T03:21:02.051Z,7.93
2022-08-03T03:23:29.236Z,9.40
2022-08-03T03:25:58.457Z,7.90
2022-08-03T03:28:25.646Z,8.32
2022-08-03T03:30:53.474Z,5.90
2022-08-03T03:33:21.698Z,6.38
2022-08-03T03:35:48.794Z,7.93
2022-08-03T03:38:15.489Z,6.95
2022-08-03T03:40:42.111Z,6.28
2022-08-03T03:43:09.944Z,10.50
2022-08-03T03:45:37.265Z,8.05
2022-08-03T03:48:04.797Z,7.38
2022-08-03T03:50:33.092Z,5.65
2022-08-03T03:52:59.816Z,9.40
2022-08-03T03:55:26.507Z,8.00
2022-08-03T03:57:53.283Z,9.13
2022-08-03T04:00:20.707Z,7.57
2022-08-03T04:02:47.818Z,6.07
2022-08-03T04:05:33.699Z,8.25
2022-08-03T04:08:32.968Z,13.68
2022-08-03T04:11:11.696Z,11.82
2022-08-03T04:13:45.209Z,10.75
2022-08-03T04:16:13.337Z,9.38
2022-08-03T04:18:41.847Z,8.52
2022-08-03T04:21:12.777Z,7.57
2022-08-03T04:23:43.091Z,8.38
2022-08-03T04:26:12.056Z,7.05
2022-08-03T04:28:41.734Z,7.68
2022-08-03T04:31:08.508Z,6.85
2022-08-03T04:33:37.604Z,7.43
2022-08-03T04:36:07.190Z,9.00
2022-08-03T04:38:39.130Z,13.15
2022-08-03T04:41:06.860Z,9.98
2022-08-03T04:43:34.348Z,7.95
2022-08-03T04:46:03.066Z,7.85
2022-08-03T04:48:29.866Z,7.97
2022-08-03T04:50:56.663Z,11.85
2022-08-03T04:53:23.522Z,6.47
2022-08-03T04:55:50.294Z,10.50
2022-08-03T04:58:16.970Z,8.73
2022-08-03T05:00:45.474Z,9.10
2022-08-03T05:03:19.522Z,11.20
2022-08-03T05:05:51.649Z,11.10
2022-08-03T05:08:20.631Z,9.77
2022-08-03T05:10:54.943Z,9.68
2022-08-03T05:13:21.810Z,11.02
2022-08-03T05:15:49.267Z,13.27
2022-08-03T05:18:16.025Z,15.50
2022-08-03T05:20:42.772Z,11.23
2022-08-03T05:23:09.720Z,15.38
2022-08-03T05:25:36.425Z,11.10
2022-08-03T05:28:03.733Z,13.15
2022-08-03T05:30:34.024Z,12.00
2022-08-03T05:33:02.913Z,13.40
2022-08-03T05:35:57.557Z,21.55
2022-08-03T05:38:23.730Z,13.63
2022-08-03T05:40:56.736Z,11.10
2022-08-03T05:43:24.854Z,18.02
2022-08-03T05:46:11.407Z,13.20
2022-08-03T05:48:38.174Z,8.02
2022-08-03T05:51:06.626Z,9.40
2022-08-03T05:53:34.167Z,9.32
2022-08-03T05:56:13.355Z,9.60
2022-08-03T05:58:48.505Z,8.50
2022-08-03T06:01:16.915Z,7.63
2022-08-03T06:03:44.204Z,8.55
2022-08-03T06:06:11.647Z,7.75
2022-08-03T06:08:38.737Z,13.80
2022-08-03T06:11:05.483Z,10.02
2022-08-03T06:13:32.350Z,6.97
2022-08-03T06:15:59.119Z,13.48
2022-08-03T06:18:26.032Z,13.75
2022-08-03T06:20:53.278Z,15.82
2022-08-03T06:23:20.221Z,13.07
2022-08-03T06:25:47.535Z,15.02
2022-08-03T06:28:42.523Z,20.73
2022-08-03T06:31:01.598Z,18.30
2022-08-03T06:34:30.781Z,14.93
2022-08-03T06:36:15.425Z,19.75
2022-08-03T06:38:42.119Z,13.93
2022-08-03T06:41:08.852Z,18.10
2022-08-03T06:44:03.708Z,29.00
2022-08-03T06:46:25.932Z,13.82
2022-08-03T06:48:52.949Z,9.10
2022-08-03T06:51:19.654Z,9.00
2022-08-03T06:53:46.325Z,7.30
2022-08-03T06:56:13.124Z,8.30
2022-08-03T06:58:39.931Z,10.40
2022-08-03T07:01:06.688Z,6.57
2022-08-03T07:03:33.455Z,5.53
2022-08-03T07:06:00.281Z,5.40
2022-08-03T07:08:33.673Z,9.60
2022-08-03T07:11:01.200Z,5.60
2022-08-03T07:13:27.878Z,8.55
2022-08-03T07:15:56.130Z,5.75
2022-08-03T07:18:29.148Z,6.95
2022-08-03T07:20:59.773Z,13.55
2022-08-03T07:23:26.621Z,7.22
2022-08-03T07:25:53.300Z,4.68
2022-08-03T07:28:20.596Z,5.72
2022-08-03T07:30:47.544Z,5.28
2022-08-03T07:33:15.294Z,4.68
2022-08-03T07:35:42.175Z,4.25
2022-08-03T07:38:08.920Z,5.47
2022-08-03T07:40:35.621Z,3.88
2022-08-03T07:43:03.457Z,5.32
2022-08-03T07:45:31.277Z,3.47
2022-08-03T07:47:58.042Z,5.63
2022-08-03T07:50:24.827Z,4.72
2022-08-03T07:52:53.019Z,2.15
2022-08-03T07:55:24.179Z,7.97
2022-08-03T07:58:09.854Z,6.03
2022-08-03T08:00:36.749Z,4.38
2022-08-03T08:03:04.524Z,4.60
2022-08-03T08:05:31.783Z,3.53
2022-08-03T08:07:58.584Z,5.72
2022-08-03T08:10:25.586Z,7.25
2022-08-03T08:12:52.813Z,5.40
2022-08-03T08:15:19.779Z,6.80
2022-08-03T08:17:50.756Z,3.78
2022-08-03T08:20:23.813Z,4.15
2022-08-03T08:23:00.936Z,7.68
2022-08-03T08:25:29.280Z,7.07
2022-08-03T08:28:29.786Z,8.10
2022-08-03T08:30:43.432Z,3.25
2022-08-03T08:33:23.085Z,4.10
2022-08-03T08:35:52.050Z,6.82
2022-08-03T08:38:18.824Z,5.28
2022-08-03T08:40:45.562Z,4.35
2022-08-03T08:43:12.217Z,4.75
2022-08-03T08:45:39.128Z,7.50
2022-08-03T08:48:08.467Z,5.25
2022-08-03T08:50:37.490Z,8.25
2022-08-03T08:53:09.636Z,5.05
2022-08-03T08:55:59.470Z,2.78
2022-08-03T08:58:26.794Z,4.40
2022-08-03T09:00:53.676Z,4.60
2022-08-03T09:03:22.676Z,4.38
2022-08-03T09:05:56.586Z,6.10
2022-08-03T09:08:23.390Z,4.07
2022-08-03T09:10:50.133Z,5.47
2022-08-03T09:13:16.864Z,6.22
2022-08-03T09:16:00.566Z,4.68
2022-08-03T09:18:32.262Z,3.70
2022-08-03T09:21:35.264Z,5.07
2022-08-03T09:24:05.834Z,2.53
2022-08-03T09:26:38.095Z,5.35
2022-08-03T09:29:13.857Z,4.07
2022-08-03T09:31:46.411Z,3.97
2022-08-03T09:34:15.798Z,4.82
2022-08-03T09:36:43.856Z,3.92
2022-08-03T09:39:12.517Z,2.55
2022-08-03T09:41:41.697Z,4.97
2022-08-03T09:44:08.769Z,8.25
2022-08-03T09:46:56.415Z,6.05
2022-08-03T09:49:24.517Z,2.55
2022-08-03T09:52:32.613Z,5.10
2022-08-03T09:54:38.938Z,4.97
2022-08-03T09:57:05.654Z,3.13
2022-08-03T09:59:38.120Z,4.28
2022-08-03T10:02:29.740Z,3.67
2022-08-03T10:04:56.512Z,5.80
2022-08-03T10:07:24.421Z,3.20
2022-08-03T10:10:30.192Z,6.03
2022-08-03T10:12:49.264Z,4.28
2022-08-03T10:16:24.146Z,6.40
2022-08-03T10:18:02.887Z,2.35
2022-08-03T10:20:29.788Z,5.28
2022-08-03T10:22:56.592Z,5.63
2022-08-03T10:25:23.643Z,5.10
2022-08-03T10:28:04.423Z,3.92
2022-08-03T10:30:32.479Z,2.10
2022-08-03T10:33:03.580Z,5.40
2022-08-03T10:35:38.122Z,2.47
2022-08-03T10:38:10.208Z,3.38
2022-08-03T10:40:57.231Z,9.63
2022-08-03T10:43:34.571Z,3.35
2022-08-03T10:46:02.417Z,4.60
2022-08-03T10:48:31.040Z,2.65
2022-08-03T10:50:57.824Z,4.07
2022-08-03T10:53:39.310Z,5.05
2022-08-03T10:56:36.816Z,4.72
2022-08-03T10:59:11.746Z,3.38
2022-08-03T11:01:59.262Z,3.63
2022-08-03T11:04:29.568Z,7.00
2022-08-03T11:07:16.064Z,2.85
2022-08-03T11:09:44.360Z,4.78
2022-08-03T11:12:32.105Z,7.93
2022-08-03T11:15:07.558Z,2.22
2022-08-03T11:17:45.741Z,4.88
2022-08-03T11:20:57.412Z,3.95
2022-08-03T11:24:04.130Z,3.38
2022-08-03T11:26:30.397Z,3.90
2022-08-03T11:29:29.954Z,4.70
2022-08-03T11:31:57.375Z,3.05
2022-08-03T11:34:24.784Z,6.45
2022-08-03T11:37:25.341Z,1.85
2022-08-03T11:39:54.887Z,5.90
2022-08-03T11:42:24.720Z,5.43
2022-08-03T11:44:56.420Z,2.03
2022-08-03T11:47:24.450Z,4.57
2022-08-03T11:49:52.796Z,5.80
2022-08-03T11:52:27.189Z,2.53
2022-08-03T11:54:56.701Z,4.25
2022-08-03T11:59:16.469Z,4.57
2022-08-03T12:00:33.640Z,6.60
2022-08-03T12:03:06.148Z,6.40
2022-08-03T12:05:39.289Z,7.88
2022-08-03T12:08:07.135Z,1.95
2022-08-03T12:10:34.943Z,12.73
2022-08-03T12:13:05.911Z,8.45
2022-08-03T12:15:57.520Z,5.40
2022-08-03T12:18:24.793Z,5.50
2022-08-03T12:20:53.172Z,5.35
2022-08-03T12:23:20.375Z,6.80
2022-08-03T12:25:47.670Z,1.85
2022-08-03T12:28:28.310Z,4.38
2022-08-03T12:31:09.294Z,4.78
2022-08-03T12:33:58.969Z,2.60
2022-08-03T12:36:26.935Z,5.93
2022-08-03T12:38:59.130Z,6.05
2022-08-03T12:41:35.230Z,3.50
2022-08-03T12:44:03.679Z,2.17
2022-08-03T12:46:47.086Z,7.78
2022-08-03T12:49:15.857Z,3.75
2022-08-03T12:51:42.731Z,4.28
2022-08-03T12:54:10.908Z,2.65
2022-08-03T12:57:15.604Z,5.22
2022-08-03T12:59:53.766Z,3.08
2022-08-03T13:02:25.841Z,4.53
2022-08-03T13:04:54.641Z,3.78
2022-08-03T13:07:22.452Z,6.10
2022-08-03T13:09:53.037Z,4.00
2022-08-03T13:12:24.975Z,4.68
2022-08-03T13:14:55.436Z,4.25
2022-08-03T13:17:22.774Z,5.05
2022-08-03T13:19:53.334Z,5.78
2022-08-03T13:22:21.311Z,4.20
2022-08-03T13:24:50.232Z,4.07
2022-08-03T13:28:02.422Z,4.75
2022-08-03T13:30:04.728Z,5.25
2022-08-03T13:32:31.489Z,7.15
2022-08-03T13:34:58.241Z,4.10
2022-08-03T13:37:25.915Z,6.60
2022-08-03T13:39:59.246Z,6.15
2022-08-03T13:42:30.399Z,3.45
2022-08-03T13:44:57.826Z,3.22
2022-08-03T13:47:30.968Z,3.45
2022-08-03T13:50:00.785Z,5.03
2022-08-03T13:52:35.478Z,4.65
2022-08-03T13:55:06.938Z,2.80
2022-08-03T13:58:04.603Z,4.97
2022-08-03T14:00:27.480Z,6.47
2022-08-03T14:03:02.688Z,1.25
2022-08-03T14:05:32.537Z,1.33
2022-08-03T14:08:04.202Z,3.97
2022-08-03T14:10:33.787Z,6.50
2022-08-03T14:13:00.666Z,4.63
2022-08-03T14:15:28.672Z,2.58
2022-08-03T14:17:56.487Z,1.95
2022-08-03T14:20:38.568Z,3.72
2022-08-03T14:23:14.252Z,3.63
2022-08-03T14:25:44.344Z,3.00
2022-08-03T14:28:20.413Z,1.52
2022-08-03T14:30:47.948Z,2.88
2022-08-03T14:33:14.815Z,2.53
2022-08-03T14:35:41.627Z,3.95
2022-08-03T14:38:08.352Z,1.63
2022-08-03T14:40:35.072Z,3.08
2022-08-03T14:43:02.533Z,2.65
2022-08-03T14:45:29.402Z,5.40
2022-08-03T14:50:31.856Z,4.28
2022-08-03T14:50:50.160Z,4.18
2022-08-03T14:53:20.348Z,1.50
2022-08-03T14:55:51.185Z,4.45
2022-08-03T14:58:21.107Z,2.03
2022-08-03T15:00:50.169Z,2.05
2022-08-03T15:03:21.488Z,5.00
2022-08-03T15:05:48.377Z,5.03
2022-08-03T15:08:15.452Z,3.20
2022-08-03T15:10:44.826Z,2.63
2022-08-03T15:13:13.221Z,1.55
2022-08-03T15:15:42.852Z,1.90
2022-08-03T15:18:10.045Z,4.55
2022-08-03T15:20:44.408Z,6.43
2022-08-03T15:23:12.939Z,6.32
2022-08-03T15:26:32.315Z,2.63
2022-08-03T15:28:26.871Z,3.15
2022-08-03T15:30:53.760Z,3.22
2022-08-03T15:33:20.796Z,2.38
2022-08-03T15:35:47.868Z,4.30
2022-08-03T15:38:14.899Z,4.32
2022-08-03T15:40:41.760Z,2.67
2022-08-03T15:43:08.567Z,2.03
2022-08-03T15:45:36.409Z,2.20
2022-08-03T15:48:05.186Z,4.15
2022-08-03T15:50:31.965Z,4.30
2022-08-03T15:53:00.818Z,2.25
2022-08-03T15:55:27.723Z,3.15
2022-08-03T15:59:03.504Z,2.15
2022-08-03T16:00:42.037Z,4.28
2022-08-03T16:03:09.218Z,2.67
2022-08-03T16:05:36.164Z,2.20
2022-08-03T16:08:05.064Z,2.08
2022-08-03T16:10:33.895Z,6.63
2022-08-03T16:13:00.755Z,4.38
2022-08-03T16:15:27.675Z,1.83
2022-08-03T16:17:54.555Z,3.70
2022-08-03T16:20:31.152Z,0.95
2022-08-03T16:23:01.550Z,3.80
2022-08-03T16:25:35.865Z,5.70
2022-08-03T16:28:08.097Z,2.00
2022-08-03T16:30:42.770Z,5.38
2022-08-03T16:33:10.144Z,2.85
2022-08-03T16:35:38.590Z,3.00
2022-08-03T16:38:09.948Z,3.13
2022-08-03T16:40:37.781Z,6.18
2022-08-03T16:43:18.302Z,3.80
2022-08-03T16:45:49.341Z,6.60
2022-08-03T16:48:16.970Z,3.30
2022-08-03T16:50:44.971Z,5.47
2022-08-03T16:53:16.853Z,8.95
2022-08-03T16:55:53.899Z,1.38
2022-08-03T16:58:34.847Z,2.38
2022-08-03T17:04:02.197Z,3.58
2022-08-03T17:06:34.218Z,3.60
2022-08-03T17:09:04.489Z,6.00
2022-08-03T17:11:37.530Z,3.30
2022-08-03T17:14:09.234Z,2.78
2022-08-03T17:16:38.564Z,2.65
2022-08-03T17:19:07.316Z,6.82
2022-08-03T17:21:39.359Z,0.93
2022-08-03T17:24:19.980Z,3.00
2022-08-03T17:26:50.986Z,2.45
2022-08-03T17:29:19.503Z,3.17
2022-08-03T17:31:53.445Z,1.80
2022-08-03T17:34:26.530Z,3.53
2022-08-03T17:37:27.299Z,3.80
2022-08-03T17:39:58.304Z,2.75
2022-08-03T17:42:33.041Z,2.67
2022-08-03T17:45:06.660Z,3.17
2022-08-03T17:47:41.988Z,1.48
2022-08-03T17:50:24.518Z,4.32
2022-08-03T17:53:23.871Z,3.38
2022-08-03T17:56:42.413Z,1.52
2022-08-03T17:59:50.593Z,2.53
2022-08-03T18:02:37.226Z,4.97
2022-08-03T18:05:16.003Z,2.35
2022-08-03T18:08:01.484Z,5.30
2022-08-03T18:10:35.724Z,2.55
2022-08-03T18:13:10.620Z,3.58
2022-08-03T18:15:43.249Z,8.32
2022-08-03T18:18:11.235Z,3.40
2022-08-03T18:20:42.078Z,2.55
2022-08-03T18:23:20.400Z,3.80
2022-08-03T18:26:04.967Z,3.60
2022-08-03T18:28:32.477Z,2.08
2022-08-03T18:31:05.915Z,2.30
2022-08-03T18:34:16.367Z,5.80
2022-08-03T18:36:30.116Z,3.80
2022-08-03T18:38:59.618Z,2.63
2022-08-03T18:41:33.746Z,2.08
2022-08-03T18:44:08.221Z,4.32
2022-08-03T18:46:48.358Z,4.43
2022-08-03T18:49:53.925Z,5.10
2022-08-03T18:52:22.814Z,8.60
2022-08-03T18:55:19.871Z,2.70
2022-08-03T18:57:53.403Z,1.00
2022-08-03T19:00:24.293Z,4.97
2022-08-03T19:03:12.263Z,5.47
2022-08-03T19:06:20.262Z,4.00
2022-08-03T19:09:09.495Z,4.32
2022-08-03T19:12:14.305Z,5.00
2022-08-03T19:14:35.135Z,4.03
2022-08-03T19:17:09.122Z,3.05
2022-08-03T19:19:43.328Z,2.42
2022-08-03T19:22:15.934Z,8.10
2022-08-03T19:24:49.154Z,7.60
2022-08-03T19:27:16.287Z,6.20
2022-08-03T19:29:59.408Z,5.07
2022-08-03T19:32:32.024Z,5.32
2022-08-03T19:35:00.481Z,5.43
2022-08-03T19:37:38.364Z,3.72
2022-08-03T19:40:10.317Z,5.45
2022-08-03T19:42:41.109Z,5.63
2022-08-03T19:45:11.365Z,3.92
2022-08-03T19:47:46.945Z,4.28
2022-08-03T19:50:15.477Z,3.72
2022-08-03T19:52:44.005Z,7.68
2022-08-03T19:55:12.371Z,4.10
2022-08-03T19:57:43.038Z,2.58
2022-08-03T20:00:12.709Z,2.95
2022-08-03T20:02:41.121Z,3.45
2022-08-03T20:05:12.072Z,4.93
2022-08-03T20:07:47.659Z,5.43
2022-08-03T20:10:16.518Z,7.75
2022-08-03T20:12:45.765Z,12.77
2022-08-03T20:15:12.959Z,5.97
2022-08-03T20:17:57.085Z,6.57
2022-08-03T20:20:35.166Z,4.78
2022-08-03T20:23:07.982Z,8.07
2022-08-03T20:25:56.955Z,8.00
2022-08-03T20:28:35.552Z,11.65
2022-08-03T20:31:32.618Z,3.60
2022-08-03T20:34:03.407Z,6.60
2022-08-03T20:36:33.912Z,9.80
2022-08-03T20:39:00.901Z,6.53
2022-08-03T20:41:27.815Z,6.13
2022-08-03T20:43:57.509Z,4.20
2022-08-03T20:46:31.311Z,8.27
2022-08-03T20:49:03.755Z,18.75
2022-08-03T20:51:49.793Z,9.35
2022-08-03T20:54:30.964Z,9.07
2022-08-03T20:57:03.452Z,9.70
2022-08-03T20:59:46.993Z,5.78
2022-08-03T21:05:09.968Z,9.30
2022-08-03T21:08:04.893Z,7.80
2022-08-03T21:10:33.338Z,9.93
2022-08-03T21:13:07.897Z,7.95
2022-08-03T21:13:17.479Z,5.88
2022-08-03T21:16:02.934Z,6.03
2022-08-03T21:18:43.606Z,5.72
2022-08-03T21:21:10.705Z,8.00
2022-08-03T21:23:48.020Z,6.35
2022-08-03T21:26:20.302Z,12.70
2022-08-03T21:28:48.782Z,6.32
2022-08-03T21:31:24.408Z,9.88
2022-08-03T21:33:59.416Z,4.70
2022-08-03T21:36:27.742Z,4.32
2022-08-03T21:38:56.297Z,7.35
2022-08-03T21:41:27.347Z,4.82
2022-08-03T21:43:54.160Z,9.55
2022-08-03T21:46:22.090Z,8.13
2022-08-03T21:48:54.892Z,8.30
2022-08-03T21:51:24.626Z,5.30
2022-08-03T21:54:02.558Z,10.20
2022-08-03T21:56:41.009Z,6.65
2022-08-03T21:59:09.925Z,8.23
2022-08-03T22:01:39.949Z,4.63
2022-08-03T22:04:07.365Z,5.60
2022-08-03T22:06:36.179Z,6.65
2022-08-03T22:09:05.743Z,10.90
2022-08-03T22:11:34.931Z,10.45
2022-08-03T22:14:02.652Z,5.97
2022-08-03T22:16:30.111Z,12.45
2022-08-03T22:18:56.808Z,11.27
2022-08-03T22:21:36.453Z,7.40
2022-08-03T22:24:05.372Z,9.02
2022-08-03T22:26:35.463Z,5.45
2022-08-03T22:29:06.993Z,8.43
2022-08-03T22:31:58.873Z,4.85
2022-08-03T22:34:26.801Z,4.57
2022-08-03T22:36:56.573Z,5.97
2022-08-03T22:39:28.138Z,5.10
2022-08-03T22:41:56.818Z,5.22
2022-08-03T22:44:24.315Z,7.32
2022-08-03T22:46:51.125Z,13.57
2022-08-03T22:49:18.281Z,7.60
2022-08-03T22:51:45.191Z,11.35
2022-08-03T22:54:12.223Z,4.80
2022-08-03T22:56:41.568Z,13.77
2022-08-03T22:59:40.783Z,10.70
2022-08-03T23:02:00.743Z,4.47
2022-08-03T23:04:29.693Z,7.40
2022-08-03T23:06:57.927Z,8.75
2022-08-03T23:09:24.957Z,7.93
2022-08-03T23:11:53.592Z,10.60
2022-08-03T23:14:20.757Z,11.35
2022-08-03T23:16:48.073Z,5.95
2022-08-03T23:19:17.277Z,9.60
2022-08-03T23:22:02.659Z,13.07
2022-08-03T23:24:33.225Z,15.80
2022-08-03T23:27:03.255Z,7.13
2022-08-03T23:29:30.680Z,6.95
2022-08-03T23:31:59.269Z,7.25
2022-08-03T23:34:44.669Z,6.60
2022-08-03T23:37:13.319Z,10.95
2022-08-03T23:39:40.387Z,6.75
2022-08-03T23:42:07.251Z,4.55
2022-08-03T23:44:34.716Z,8.80
2022-08-03T23:47:01.493Z,8.45
2022-08-03T23:49:28.183Z,7.35
2022-08-03T23:52:05.890Z,9.80
2022-08-03T23:54:44.744Z,5.75
2022-08-03T23:57:22.465Z,8.48
2022-08-03T23:59:58.199Z,11.15
